createdAt,value
2023-01-13T00:00:23.294Z,0.63
2023-01-13T00:02:51.207Z,0.50
2023-01-13T00:05:20.257Z,0.60
2023-01-13T00:07:49.757Z,1.52
2023-01-13T00:10:18.255Z,0.70
2023-01-13T00:12:46.427Z,0.87
2023-01-13T00:15:14.501Z,0.52
2023-01-13T00:17:42.385Z,1.67
2023-01-13T00:20:12.538Z,0.88
2023-01-13T00:22:40.334Z,0.60
2023-01-13T00:25:10.373Z,1.25
2023-01-13T00:27:38.198Z,1.50
2023-01-13T00:30:07.741Z,0.73
2023-01-13T00:32:35.748Z,0.60
2023-01-13T00:35:03.827Z,0.95
2023-01-13T00:37:31.700Z,0.77
2023-01-13T00:40:00.638Z,1.10
2023-01-13T00:42:47.192Z,1.80
2023-01-13T00:45:15.680Z,0.75
2023-01-13T00:47:43.589Z,2.30
2023-01-13T00:50:12.262Z,1.40
2023-01-13T00:52:42.022Z,1.37
2023-01-13T00:55:10.477Z,0.60
2023-01-13T00:57:40.178Z,0.57
2023-01-13T01:00:09.423Z,0.80
2023-01-13T01:02:37.373Z,0.70
2023-01-13T01:05:05.798Z,0.93
2023-01-13T01:07:33.654Z,0.60
2023-01-13T01:10:01.487Z,1.80
2023-01-13T01:12:29.748Z,0.83
2023-01-13T01:14:59.059Z,1.17
2023-01-13T01:17:26.915Z,1.02
2023-01-13T01:19:54.819Z,0.63
2023-01-13T01:22:22.679Z,0.50
2023-01-13T01:24:50.450Z,0.53
2023-01-13T01:27:18.415Z,0.90
2023-01-13T01:29:46.396Z,0.50
2023-01-13T01:32:15.785Z,0.98
2023-01-13T01:34:43.745Z,0.70
2023-01-13T01:37:11.633Z,0.75
2023-01-13T01:39:39.455Z,1.10
2023-01-13T01:42:24.811Z,2.08
2023-01-13T01:45:01.147Z,1.73
2023-01-13T01:47:33.416Z,0.88
2023-01-13T01:50:04.233Z,0.68
2023-01-13T01:52:37.040Z,1.27
2023-01-13T01:55:09.889Z,1.95
2023-01-13T01:57:43.612Z,1.17
2023-01-13T02:00:12.743Z,0.50
2023-01-13T02:02:43.033Z,0.73
2023-01-13T02:05:11.255Z,0.73
2023-01-13T02:07:41.284Z,0.85
2023-01-13T02:10:12.299Z,1.42
2023-01-13T02:12:41.827Z,0.95
2023-01-13T02:15:12.654Z,0.60
2023-01-13T02:17:58.923Z,2.47
2023-01-13T02:20:54.054Z,0.40
2023-01-13T02:24:21.730Z,1.47
2023-01-13T02:27:31.897Z,0.50
2023-01-13T02:30:26.400Z,0.90
2023-01-13T02:33:06.455Z,0.50
2023-01-13T02:35:41.788Z,2.13
2023-01-13T02:38:12.423Z,1.40
2023-01-13T02:40:47.857Z,1.53
2023-01-13T02:43:40.073Z,0.60
2023-01-13T02:46:15.765Z,1.03
2023-01-13T02:48:45.898Z,2.58
2023-01-13T02:51:18.893Z,0.40
2023-01-13T02:53:53.211Z,0.50
2023-01-13T02:56:24.337Z,0.57
2023-01-13T02:58:54.955Z,0.60
2023-01-13T03:01:24.368Z,1.83
2023-01-13T03:03:52.249Z,0.90
2023-01-13T03:06:41.981Z,0.40
2023-01-13T03:09:16.119Z,1.43
2023-01-13T03:11:52.077Z,0.57
2023-01-13T03:14:31.589Z,1.63
2023-01-13T03:17:12.225Z,0.50
2023-01-13T03:19:45.221Z,1.43
2023-01-13T03:22:22.393Z,0.38
2023-01-13T03:24:54.073Z,0.50
2023-01-13T03:27:27.873Z,1.23
2023-01-13T03:30:00.190Z,0.67
2023-01-13T03:32:33.130Z,1.20
2023-01-13T03:35:08.823Z,1.03
2023-01-13T03:37:40.565Z,0.63
2023-01-13T03:40:13.874Z,0.57
2023-01-13T03:43:05.104Z,0.70
2023-01-13T03:45:34.093Z,0.40
2023-01-13T03:48:07.809Z,1.75
2023-01-13T03:50:40.991Z,1.05
2023-01-13T03:53:12.619Z,0.60
2023-01-13T03:55:45.204Z,0.40
2023-01-13T03:58:18.991Z,0.60
2023-01-13T04:00:52.543Z,2.77
2023-01-13T04:03:29.601Z,1.00
2023-01-13T04:06:02.002Z,1.50
2023-01-13T04:08:30.915Z,0.47
2023-01-13T04:11:03.956Z,0.40
2023-01-13T04:13:36.447Z,0.40
2023-01-13T04:16:07.306Z,0.77
2023-01-13T04:18:40.341Z,0.55
2023-01-13T04:21:09.126Z,0.43
2023-01-13T04:23:36.942Z,0.40
2023-01-13T04:26:04.831Z,0.50
2023-01-13T04:28:33.505Z,0.40
2023-01-13T04:31:01.386Z,0.50
2023-01-13T04:33:29.279Z,0.50
2023-01-13T04:35:58.553Z,0.75
2023-01-13T04:38:26.377Z,1.75
2023-01-13T04:40:54.152Z,0.60
2023-01-13T04:43:21.942Z,0.40
2023-01-13T04:45:49.783Z,0.50
2023-01-13T04:48:17.759Z,0.53
2023-01-13T04:50:45.539Z,2.92
2023-01-13T04:53:14.827Z,1.53
2023-01-13T04:55:44.347Z,0.88
2023-01-13T04:58:12.496Z,1.60
2023-01-13T05:00:40.709Z,0.57
2023-01-13T05:03:08.562Z,0.50
2023-01-13T05:05:36.572Z,0.57
2023-01-13T05:08:04.877Z,0.60
2023-01-13T05:10:34.209Z,0.95
2023-01-13T05:13:19.335Z,0.40
2023-01-13T05:16:06.592Z,1.63
2023-01-13T05:18:34.728Z,1.77
2023-01-13T05:21:02.492Z,0.77
2023-01-13T05:23:48.187Z,0.95
2023-01-13T05:26:17.427Z,2.60
2023-01-13T05:28:45.324Z,1.80
2023-01-13T05:31:14.979Z,2.58
2023-01-13T05:33:43.091Z,1.27
2023-01-13T05:36:11.241Z,0.70
2023-01-13T05:38:39.149Z,0.80
2023-01-13T05:41:24.410Z,2.20
2023-01-13T05:43:53.604Z,1.05
2023-01-13T05:46:21.463Z,1.98
2023-01-13T05:48:49.385Z,1.13
2023-01-13T05:51:17.256Z,3.38
2023-01-13T05:53:45.090Z,2.53
2023-01-13T05:56:13.045Z,2.63
2023-01-13T05:58:40.985Z,5.25
2023-01-13T06:01:11.339Z,2.90
2023-01-13T06:03:39.581Z,1.20
2023-01-13T06:06:09.175Z,1.23
2023-01-13T06:08:39.601Z,3.80
2023-01-13T06:11:08.052Z,3.58
2023-01-13T06:13:35.935Z,3.90
2023-01-13T06:16:04.013Z,5.33
2023-01-13T06:18:33.244Z,2.40
2023-01-13T06:21:01.238Z,5.55
2023-01-13T06:23:32.030Z,4.47
2023-01-13T06:26:05.291Z,1.53
2023-01-13T06:28:33.369Z,3.60
2023-01-13T06:31:04.326Z,2.17
2023-01-13T06:33:37.957Z,2.00
2023-01-13T06:36:13.881Z,3.60
2023-01-13T06:38:47.810Z,5.50
2023-01-13T06:41:16.136Z,3.57
2023-01-13T06:43:43.083Z,1.80
2023-01-13T06:46:11.233Z,3.13
2023-01-13T06:48:40.383Z,1.85
2023-01-13T06:51:08.083Z,2.00
2023-01-13T06:53:35.971Z,1.52
2023-01-13T06:56:03.823Z,2.28
2023-01-13T06:58:31.668Z,2.47
2023-01-13T07:01:01.740Z,2.60
2023-01-13T07:03:30.010Z,2.13
2023-01-13T07:06:00.466Z,1.63
2023-01-13T07:08:28.456Z,3.55
2023-01-13T07:10:56.267Z,1.90
2023-01-13T07:13:41.945Z,0.80
2023-01-13T07:16:10.677Z,1.77
2023-01-13T07:18:38.645Z,2.33
2023-01-13T07:21:09.841Z,3.60
2023-01-13T07:23:39.520Z,1.63
2023-01-13T07:26:07.934Z,1.33
2023-01-13T07:28:36.000Z,2.47
2023-01-13T07:31:04.617Z,2.80
2023-01-13T07:33:33.510Z,1.00
2023-01-13T07:36:03.096Z,3.50
2023-01-13T07:38:33.513Z,1.23
2023-01-13T07:41:23.018Z,0.83
2023-01-13T07:43:50.253Z,1.90
2023-01-13T07:46:18.305Z,2.03
2023-01-13T07:48:48.355Z,1.07
2023-01-13T07:51:16.378Z,0.90
2023-01-13T07:53:45.639Z,1.90
2023-01-13T07:56:13.558Z,1.77
2023-01-13T07:58:41.344Z,1.53
2023-01-13T08:01:10.012Z,1.03
2023-01-13T08:03:37.846Z,2.73
2023-01-13T08:06:05.954Z,1.58
2023-01-13T08:08:34.006Z,3.13
2023-01-13T08:11:04.702Z,4.63
2023-01-13T08:13:32.676Z,4.00
2023-01-13T08:16:02.801Z,2.10
2023-01-13T08:18:32.108Z,1.53
2023-01-13T08:21:03.768Z,1.73
2023-01-13T08:23:32.118Z,1.03
2023-01-13T08:26:03.559Z,0.85
2023-01-13T08:28:31.363Z,1.80
2023-01-13T08:31:00.790Z,1.90
2023-01-13T08:33:28.807Z,1.27
2023-01-13T08:35:57.008Z,1.20
2023-01-13T08:38:25.539Z,0.90
2023-01-13T08:40:53.565Z,1.70
2023-01-13T08:43:22.865Z,1.63
2023-01-13T08:45:58.290Z,1.70
2023-01-13T08:48:26.629Z,2.13
2023-01-13T08:50:54.823Z,1.07
2023-01-13T08:53:22.652Z,3.97
2023-01-13T08:55:50.490Z,3.30
2023-01-13T08:58:18.563Z,2.75
2023-01-13T09:00:47.682Z,1.10
2023-01-13T09:03:15.595Z,3.07
2023-01-13T09:05:44.327Z,1.33
2023-01-13T09:08:12.227Z,2.13
2023-01-13T09:10:40.495Z,2.53
2023-01-13T09:13:13.751Z,7.18
2023-01-13T09:15:43.676Z,1.97
2023-01-13T09:18:13.375Z,4.43
2023-01-13T09:20:41.657Z,4.32
2023-01-13T09:23:11.335Z,2.80
2023-01-13T09:25:40.684Z,3.10
2023-01-13T09:28:09.222Z,2.20
2023-01-13T09:30:38.326Z,3.53
2023-01-13T09:33:23.605Z,3.95
2023-01-13T09:35:52.866Z,6.27
2023-01-13T09:38:20.700Z,2.05
2023-01-13T09:40:50.708Z,2.53
2023-01-13T09:43:41.336Z,4.35
2023-01-13T09:46:32.704Z,7.28
2023-01-13T09:49:03.624Z,3.42
2023-01-13T09:51:39.210Z,5.22
2023-01-13T09:54:16.182Z,4.13
2023-01-13T09:56:44.259Z,4.40
2023-01-13T09:59:13.225Z,4.60
2023-01-13T10:01:51.750Z,5.25
2023-01-13T10:04:19.894Z,6.05
2023-01-13T10:06:53.156Z,5.03
2023-01-13T10:09:24.062Z,4.15
2023-01-13T10:12:11.252Z,5.88
2023-01-13T10:14:43.306Z,5.35
2023-01-13T10:17:20.136Z,6.68
2023-01-13T10:19:52.571Z,7.60
2023-01-13T10:22:34.422Z,6.22
2023-01-13T10:25:21.711Z,10.30
2023-01-13T10:27:51.746Z,6.73
2023-01-13T10:30:22.807Z,5.23
2023-01-13T10:32:55.893Z,5.25
2023-01-13T10:35:49.638Z,5.35
2023-01-13T10:38:21.036Z,4.90
2023-01-13T10:40:50.976Z,4.18
2023-01-13T10:43:18.872Z,5.53
2023-01-13T10:45:57.110Z,5.78
2023-01-13T10:48:32.516Z,4.68
2023-01-13T10:51:10.559Z,2.17
2023-01-13T10:53:47.671Z,3.60
2023-01-13T10:56:19.136Z,5.18
2023-01-13T10:58:47.787Z,4.38
2023-01-13T11:01:25.799Z,4.72
2023-01-13T11:03:55.168Z,3.80
2023-01-13T11:06:25.294Z,6.10
2023-01-13T11:08:58.188Z,5.82
2023-01-13T11:11:42.660Z,3.13
2023-01-13T11:14:36.878Z,5.10
2023-01-13T11:17:16.094Z,6.03
2023-01-13T11:19:49.654Z,4.75
2023-01-13T11:22:22.809Z,3.78
2023-01-13T11:24:55.329Z,2.92
2023-01-13T11:27:34.322Z,3.22
2023-01-13T11:30:11.716Z,9.00
2023-01-13T11:33:00.815Z,6.10
2023-01-13T11:35:30.693Z,6.13
2023-01-13T11:38:03.294Z,6.82
2023-01-13T11:40:38.162Z,9.38
2023-01-13T11:43:17.929Z,2.03
2023-01-13T11:45:51.061Z,6.45
2023-01-13T11:48:23.951Z,2.13
2023-01-13T11:51:00.369Z,4.10
2023-01-13T11:53:45.292Z,3.67
2023-01-13T11:56:30.284Z,5.95
2023-01-13T11:59:18.608Z,5.88
2023-01-13T12:02:01.326Z,3.10
2023-01-13T12:04:35.340Z,3.13
2023-01-13T12:07:15.089Z,2.17
2023-01-13T12:09:56.210Z,3.42
2023-01-13T12:12:39.272Z,7.63
2023-01-13T12:15:46.675Z,4.28
2023-01-13T12:18:43.290Z,4.32
2023-01-13T12:21:20.782Z,7.45
2023-01-13T12:24:00.948Z,5.43
2023-01-13T12:26:33.744Z,8.77
2023-01-13T12:29:07.776Z,3.00
2023-01-13T12:31:38.434Z,2.40
2023-01-13T12:34:27.764Z,4.75
2023-01-13T12:37:04.747Z,6.95
2023-01-13T12:39:43.417Z,4.15
2023-01-13T12:42:36.366Z,5.43
2023-01-13T12:45:21.794Z,4.10
2023-01-13T12:47:49.753Z,4.95
2023-01-13T12:50:42.989Z,5.95
2023-01-13T12:53:32.061Z,6.40
2023-01-13T12:56:34.804Z,4.05
2023-01-13T12:59:34.672Z,3.22
2023-01-13T13:02:38.111Z,5.00
2023-01-13T13:05:37.548Z,4.05
2023-01-13T13:08:11.876Z,6.95
2023-01-13T13:10:44.220Z,7.28
2023-01-13T13:13:39.357Z,4.85
2023-01-13T13:16:37.560Z,7.20
2023-01-13T13:19:56.030Z,4.70
2023-01-13T13:22:44.546Z,7.35
2023-01-13T13:25:30.637Z,6.32
2023-01-13T13:28:13.828Z,5.85
2023-01-13T13:30:50.643Z,5.03
2023-01-13T13:33:36.935Z,6.13
2023-01-13T13:36:16.379Z,5.00
2023-01-13T13:39:20.072Z,5.53
2023-01-13T13:42:08.998Z,6.85
2023-01-13T13:44:57.716Z,5.75
2023-01-13T13:47:25.544Z,6.90
2023-01-13T13:49:55.462Z,3.67
2023-01-13T13:52:29.948Z,4.95
2023-01-13T13:55:10.372Z,4.88
2023-01-13T13:57:42.502Z,5.05
2023-01-13T14:00:23.076Z,2.67
2023-01-13T14:02:54.046Z,2.95
2023-01-13T14:05:24.451Z,6.40
2023-01-13T14:07:59.457Z,6.18
2023-01-13T14:10:33.773Z,6.85
2023-01-13T14:13:03.994Z,5.20
2023-01-13T14:15:35.175Z,6.63
2023-01-13T14:18:06.031Z,5.95
2023-01-13T14:20:35.612Z,3.83
2023-01-13T14:23:05.894Z,6.10
2023-01-13T14:25:39.625Z,4.65
2023-01-13T14:28:21.750Z,4.85
2023-01-13T14:30:51.236Z,4.47
2023-01-13T14:33:23.249Z,5.55
2023-01-13T14:36:15.771Z,4.22
2023-01-13T14:38:45.063Z,4.68
2023-01-13T14:41:22.801Z,5.25
2023-01-13T14:43:54.228Z,5.30
2023-01-13T14:46:25.540Z,6.13
2023-01-13T14:49:00.984Z,4.82
2023-01-13T14:51:31.427Z,4.70
2023-01-13T14:53:59.627Z,3.38
2023-01-13T14:56:40.922Z,9.35
2023-01-13T14:59:55.399Z,5.45
2023-01-13T15:02:44.057Z,3.15
2023-01-13T15:05:47.459Z,5.82
2023-01-13T15:08:28.831Z,5.75
2023-01-13T15:11:00.079Z,5.85
2023-01-13T15:13:35.786Z,5.38
2023-01-13T15:16:06.037Z,5.30
2023-01-13T15:18:35.722Z,5.32
2023-01-13T15:21:04.261Z,3.38
2023-01-13T15:23:32.065Z,9.10
2023-01-13T15:26:01.550Z,6.85
2023-01-13T15:28:32.155Z,6.32
2023-01-13T15:31:01.892Z,4.05
2023-01-13T15:33:29.767Z,8.40
2023-01-13T15:35:57.785Z,7.13
2023-01-13T15:38:25.858Z,5.70
2023-01-13T15:40:54.260Z,8.75
2023-01-13T15:43:40.755Z,5.57
2023-01-13T15:46:34.895Z,5.10
2023-01-13T15:49:12.855Z,6.40
2023-01-13T15:51:41.154Z,7.72
2023-01-13T15:54:08.968Z,4.22
2023-01-13T15:56:38.287Z,6.18
2023-01-13T15:59:06.373Z,6.45
2023-01-13T16:01:35.822Z,5.40
2023-01-13T16:04:04.060Z,5.95
2023-01-13T16:06:33.304Z,5.95
2023-01-13T16:09:02.951Z,5.95
2023-01-13T16:11:31.453Z,4.15
2023-01-13T16:13:59.356Z,5.03
2023-01-13T16:16:29.504Z,6.10
2023-01-13T16:18:58.801Z,3.70
2023-01-13T16:21:26.680Z,5.00
2023-01-13T16:23:54.826Z,5.18
2023-01-13T16:26:24.887Z,4.88
2023-01-13T16:28:54.913Z,5.70
2023-01-13T16:31:30.477Z,7.80
2023-01-13T16:34:00.708Z,5.72
2023-01-13T16:36:29.924Z,4.07
2023-01-13T16:38:58.426Z,6.53
2023-01-13T16:41:26.381Z,5.63
2023-01-13T16:43:54.626Z,6.03
2023-01-13T16:46:25.646Z,6.03
2023-01-13T16:48:54.893Z,3.70
2023-01-13T16:51:25.643Z,6.00
2023-01-13T16:53:54.164Z,6.93
2023-01-13T16:56:27.526Z,5.65
2023-01-13T16:58:57.898Z,3.67
2023-01-13T17:01:27.974Z,5.18
2023-01-13T17:03:56.747Z,6.18
2023-01-13T17:06:30.112Z,9.55
2023-01-13T17:09:01.636Z,6.85
2023-01-13T17:11:29.519Z,4.30
2023-01-13T17:13:57.608Z,6.67
2023-01-13T17:16:26.144Z,2.95
2023-01-13T17:18:54.545Z,5.32
2023-01-13T17:21:22.541Z,5.57
2023-01-13T17:23:51.774Z,4.60
2023-01-13T17:26:29.209Z,4.10
2023-01-13T17:28:57.273Z,5.22
2023-01-13T17:31:25.137Z,6.37
2023-01-13T17:33:53.226Z,5.50
2023-01-13T17:36:21.284Z,6.37
2023-01-13T17:38:49.251Z,5.80
2023-01-13T17:41:18.747Z,4.40
2023-01-13T17:43:46.523Z,4.33
2023-01-13T17:46:19.169Z,4.27
2023-01-13T17:48:47.241Z,3.97
2023-01-13T17:51:16.995Z,7.33
2023-01-13T17:53:45.533Z,5.63
2023-01-13T17:56:15.454Z,5.65
2023-01-13T17:58:45.481Z,4.73
2023-01-13T18:01:16.881Z,6.50
2023-01-13T18:03:45.168Z,7.70
2023-01-13T18:06:17.819Z,5.50
2023-01-13T18:08:46.765Z,4.67
2023-01-13T18:11:14.978Z,4.97
2023-01-13T18:13:44.188Z,4.70
2023-01-13T18:16:14.734Z,7.43
2023-01-13T18:18:44.955Z,2.80
2023-01-13T18:21:36.873Z,4.30
2023-01-13T18:24:22.799Z,5.15
2023-01-13T18:27:08.156Z,7.57
2023-01-13T18:29:37.328Z,6.53
2023-01-13T18:32:07.620Z,6.17
2023-01-13T18:34:35.781Z,7.80
2023-01-13T18:37:03.630Z,4.85
2023-01-13T18:39:31.765Z,7.82
2023-01-13T18:42:16.784Z,4.55
2023-01-13T18:44:45.982Z,3.23
2023-01-13T18:47:13.860Z,6.90
2023-01-13T18:49:41.710Z,4.60
2023-01-13T18:52:09.589Z,4.23
2023-01-13T18:54:37.420Z,8.40
2023-01-13T18:57:05.939Z,4.00
2023-01-13T18:59:34.653Z,7.77
2023-01-13T19:02:09.358Z,2.20
2023-01-13T19:04:37.239Z,5.47
2023-01-13T19:07:05.099Z,8.68
2023-01-13T19:09:33.033Z,2.95
2023-01-13T19:12:01.218Z,5.23
2023-01-13T19:14:37.279Z,5.63
2023-01-13T19:17:09.685Z,4.00
2023-01-13T19:19:42.260Z,8.83
2023-01-13T19:22:10.607Z,3.90
2023-01-13T19:24:41.766Z,5.93
2023-01-13T19:27:09.951Z,4.20
2023-01-13T19:29:37.897Z,5.73
2023-01-13T19:32:18.595Z,5.20
2023-01-13T19:34:47.837Z,3.47
2023-01-13T19:37:15.845Z,10.90
2023-01-13T19:39:44.180Z,6.40
2023-01-13T19:42:29.867Z,9.47
2023-01-13T19:45:15.397Z,2.80
2023-01-13T19:47:45.520Z,6.50
2023-01-13T19:50:14.160Z,2.53
2023-01-13T19:52:42.706Z,5.13
2023-01-13T19:55:12.278Z,3.93
2023-01-13T19:57:40.978Z,8.87
2023-01-13T20:00:11.079Z,6.23
2023-01-13T20:02:44.759Z,5.43
2023-01-13T20:05:18.030Z,5.47
2023-01-13T20:07:46.023Z,3.90
2023-01-13T20:10:13.977Z,4.60
2023-01-13T20:12:42.890Z,5.93
2023-01-13T20:15:11.632Z,5.97
2023-01-13T20:17:40.658Z,8.43
2023-01-13T20:20:09.940Z,4.47
2023-01-13T20:22:39.977Z,4.80
2023-01-13T20:25:08.514Z,3.87
2023-01-13T20:27:36.904Z,6.67
2023-01-13T20:30:05.431Z,4.30
2023-01-13T20:32:33.318Z,4.47
2023-01-13T20:35:01.282Z,6.00
2023-01-13T20:37:29.152Z,4.20
2023-01-13T20:40:01.414Z,3.37
2023-01-13T20:42:29.130Z,3.67
2023-01-13T20:44:57.015Z,8.77
2023-01-13T20:47:24.921Z,4.87
2023-01-13T20:49:53.384Z,7.83
2023-01-13T20:52:21.578Z,8.13
2023-01-13T20:54:49.934Z,6.27
2023-01-13T20:57:19.255Z,4.17
2023-01-13T20:59:47.203Z,4.93
2023-01-13T21:02:17.262Z,6.93
2023-01-13T21:04:45.502Z,7.67
2023-01-13T21:07:13.666Z,4.87
2023-01-13T21:09:41.672Z,7.15
2023-01-13T21:12:26.923Z,8.20
2023-01-13T21:15:13.493Z,3.73
2023-01-13T21:17:58.922Z,7.87
2023-01-13T21:20:26.860Z,3.67
2023-01-13T21:22:54.745Z,6.57
2023-01-13T21:25:22.681Z,7.03
2023-01-13T21:27:50.665Z,4.90
2023-01-13T21:30:20.331Z,5.77
2023-01-13T21:32:48.379Z,5.10
2023-01-13T21:35:16.385Z,6.53
2023-01-13T21:37:45.024Z,9.00
2023-01-13T21:40:15.244Z,8.27
2023-01-13T21:43:00.764Z,9.43
2023-01-13T21:45:52.855Z,4.60
2023-01-13T21:48:20.843Z,5.85
2023-01-13T21:50:48.623Z,5.40
2023-01-13T21:53:16.361Z,9.10
2023-01-13T21:55:44.165Z,3.70
2023-01-13T21:58:15.474Z,7.93
2023-01-13T22:00:46.286Z,5.57
2023-01-13T22:03:18.567Z,6.70
2023-01-13T22:05:47.154Z,6.37
2023-01-13T22:08:15.127Z,9.07
2023-01-13T22:10:57.459Z,5.03
2023-01-13T22:13:47.537Z,4.07
2023-01-13T22:16:17.240Z,4.57
2023-01-13T22:18:45.097Z,4.07
2023-01-13T22:21:13.024Z,5.63
2023-01-13T22:23:40.831Z,3.93
2023-01-13T22:26:09.161Z,4.53
2023-01-13T22:28:42.814Z,4.77
2023-01-13T22:31:12.237Z,4.83
2023-01-13T22:33:42.431Z,8.07
2023-01-13T22:36:11.113Z,6.07
2023-01-13T22:38:39.001Z,4.63
2023-01-13T22:41:09.268Z,6.47
2023-01-13T22:43:38.403Z,3.87
2023-01-13T22:46:08.183Z,4.27
2023-01-13T22:48:36.498Z,3.37
2023-01-13T22:51:11.047Z,4.47
2023-01-13T22:53:39.433Z,3.57
2023-01-13T22:56:08.151Z,4.47
2023-01-13T22:58:35.959Z,3.77
2023-01-13T23:04:05.351Z,5.77
2023-01-13T23:06:36.777Z,3.37
2023-01-13T23:09:05.102Z,3.77
2023-01-13T23:11:33.051Z,7.03
2023-01-13T23:14:03.444Z,4.50
2023-01-13T23:16:33.373Z,3.33
2023-01-13T23:19:01.268Z,6.70
2023-01-13T23:21:31.789Z,6.70
2023-01-13T23:24:01.281Z,6.10
2023-01-13T23:26:30.196Z,5.77
2023-01-13T23:29:02.535Z,5.50
2023-01-13T23:31:30.957Z,8.37
2023-01-13T23:33:58.980Z,4.80
2023-01-13T23:36:28.189Z,5.97
2023-01-13T23:38:58.149Z,5.27
2023-01-13T23:41:29.308Z,6.30
2023-01-13T23:43:58.973Z,5.13
2023-01-13T23:46:27.798Z,6.10
2023-01-13T23:48:56.467Z,8.33
2023-01-13T23:51:26.116Z,6.60
2023-01-13T23:53:54.131Z,5.33
2023-01-13T23:56:24.133Z,6.63
2023-01-13T23:58:53.701Z,5.10
